createdAt,value
2023-05-24T20:15:55.758Z,14.88
2023-05-24T20:18:21.606Z,18.83
2023-05-24T20:20:46.100Z,21.00
2023-05-24T20:23:10.764Z,19.95
2023-05-24T20:25:35.358Z,19.90
2023-05-24T20:27:59.898Z,20.98
2023-05-24T20:30:24.543Z,21.20
2023-05-24T20:32:50.875Z,21.20
2023-05-24T20:35:15.473Z,21.05
2023-05-24T20:37:40.513Z,19.20
2023-05-24T20:40:05.436Z,19.33
2023-05-24T20:42:31.166Z,17.40
2023-05-24T20:44:55.723Z,18.45
2023-05-24T20:47:20.200Z,18.58
2023-05-24T20:49:46.124Z,17.20
2023-05-24T20:52:10.715Z,16.48
2023-05-24T20:54:35.147Z,16.02
2023-05-24T20:57:00.344Z,14.65
2023-05-24T20:59:24.757Z,13.55
2023-05-24T21:01:49.364Z,13.55
2023-05-24T21:04:14.180Z,12.20
2023-05-24T21:06:40.422Z,12.07
2023-05-24T21:09:06.945Z,10.82
2023-05-24T21:11:31.514Z,7.20
2023-05-24T21:13:56.748Z,9.32
2023-05-24T21:16:21.346Z,9.23
2023-05-24T21:18:46.129Z,7.70
2023-05-24T21:21:11.064Z,8.43
2023-05-24T21:23:37.300Z,7.25
2023-05-24T21:26:02.484Z,7.20
2023-05-24T21:28:27.013Z,7.20
2023-05-24T21:30:51.851Z,6.78
2023-05-24T21:33:16.829Z,6.80
2023-05-24T21:35:41.658Z,6.25
2023-05-24T21:38:06.507Z,5.68
2023-05-24T21:40:32.394Z,5.32
2023-05-24T21:42:56.907Z,5.85
2023-05-24T21:45:21.457Z,5.72
2023-05-24T21:47:46.167Z,5.50
2023-05-24T21:50:11.292Z,5.30
2023-05-24T21:52:35.737Z,5.70
2023-05-24T21:55:00.365Z,5.60
2023-05-24T21:57:26.707Z,5.65
2023-05-24T21:59:51.287Z,5.80
2023-05-24T22:02:15.866Z,5.45
2023-05-24T22:04:40.460Z,5.25
2023-05-24T22:07:05.095Z,5.28
2023-05-24T22:09:29.660Z,5.38
2023-05-24T22:11:54.095Z,5.38
2023-05-24T22:14:20.270Z,5.57
2023-05-24T22:16:44.706Z,5.50
2023-05-24T22:19:14.498Z,5.93
2023-05-24T22:21:41.712Z,5.57
2023-05-24T22:24:06.605Z,5.63
2023-05-24T22:26:31.114Z,5.50
2023-05-24T22:29:00.886Z,4.97
2023-05-24T22:31:29.054Z,5.15
2023-05-24T22:33:53.538Z,5.13
2023-05-24T22:36:18.833Z,5.22
2023-05-24T22:38:44.077Z,5.20
2023-05-24T22:41:08.805Z,5.55
2023-05-24T22:43:33.350Z,4.97
2023-05-24T22:45:58.315Z,5.43
2023-05-24T22:48:26.769Z,5.20
2023-05-24T22:50:52.592Z,6.20
2023-05-24T22:53:17.166Z,5.43
2023-05-24T22:55:42.004Z,5.18
2023-05-24T22:58:06.749Z,5.45
2023-05-24T23:00:31.260Z,5.40
2023-05-24T23:02:55.920Z,5.68
2023-05-24T23:05:24.133Z,5.82
2023-05-24T23:07:49.452Z,6.13
2023-05-24T23:10:14.056Z,5.93
2023-05-24T23:12:42.111Z,5.55
2023-05-24T23:15:07.454Z,6.05
2023-05-24T23:17:32.258Z,5.45
2023-05-24T23:19:56.979Z,6.28
2023-05-24T23:22:24.125Z,7.28
2023-05-24T23:24:49.017Z,5.72
2023-05-24T23:27:13.680Z,7.35
2023-05-24T23:29:39.135Z,6.53
2023-05-24T23:32:03.938Z,6.40
2023-05-24T23:34:28.660Z,6.38
2023-05-24T23:36:53.057Z,6.20
2023-05-24T23:39:19.002Z,6.55
2023-05-24T23:41:43.431Z,6.07
2023-05-24T23:44:07.987Z,6.43
2023-05-24T23:46:32.805Z,6.18
2023-05-24T23:48:57.274Z,6.13
2023-05-24T23:51:21.799Z,5.80
2023-05-24T23:53:48.550Z,6.95
2023-05-24T23:56:14.480Z,8.95
2023-05-24T23:58:38.970Z,8.52
